Time;durP1;ratioP1;P1;durP2;ratioP2;P2;SDS_P1;SDS_P2;PMS_P1;PMS_P2;Temp;Humidity;BMP_temperature;BMP_pressure;BME280_temperature;BME280_humidity;BME280_pressure;Samples;Min_cycle;Max_cycle;Signal;HPM_P1;HPM_P2
2022/01/06 00:01:33;;;;;;;;;;;;;;;8.33;42.68;98311.69;4484951;32;33395;-90
2022/01/06 00:04:01;;;;;;;;;;;;;;;6.97;45.55;98316.28;4484341;32;34365;-85
2022/01/06 00:06:29;;;;;;;;;;;;;;;7.35;44.52;98310.75;4484363;32;34504;-85
2022/01/06 00:08:59;;;;;;;;;;;;;;;6.77;46.32;98310.84;4484414;32;34250;-86
2022/01/06 00:11:26;;;;;;;;;;;;;;;6.88;45.59;98312.72;4484798;32;34058;-90
2022/01/06 00:14:00;;;;;;;;;;;;;;;6.83;46.09;98300.63;4484382;32;34624;-86
2022/01/06 00:24:15;;;;;;;;;;;;;;;6.63;46.83;98290.88;4484350;32;34401;-92
2022/01/06 00:26:43;;;;;;;;;;;;;;;5.62;49.81;98311.53;4484327;32;34275;-86
2022/01/06 00:29:10;;;;;;;;;;;;;;;5.93;48.85;98301.81;4483990;32;33555;-86
2022/01/06 00:31:37;;;;;;;;;;;;;;;6.75;46.67;98296.22;4484298;32;33470;-89
2022/01/06 00:34:08;;;;;;;;;;;;;;;7.16;46.12;98295.88;4483013;32;33922;-84
2022/01/06 00:36:41;;;;;;;;;;;;;;;6.51;47.58;98287.28;4483844;32;34492;-85
2022/01/06 00:39:09;;;;;;;;;;;;;;;7.18;45.21;98271.87;4483804;32;35235;-91
2022/01/06 00:41:37;;;;;;;;;;;;;;;6.49;47.77;98273.53;4484523;32;34624;-90
2022/01/06 00:44:05;;;;;;;;;;;;;;;6.77;46.66;98266.19;4483932;32;34296;-84
2022/01/06 00:46:33;;;;;;;;;;;;;;;6.04;48.81;98269.41;4468400;32;34541;-85
2022/01/06 00:49:00;;;;;;;;;;;;;;;6.40;48.26;98250.22;4468423;32;34177;-89
2022/01/06 00:51:27;;;;;;;;;;;;;;;6.03;48.61;98247.09;4481117;32;34321;-90
2022/01/06 00:53:55;;;;;;;;;;;;;;;6.04;48.77;98245.41;4484071;32;34148;-86
2022/01/06 00:56:22;;;;;;;;;;;;;;;6.62;48.03;98233.37;4483273;32;35247;-87
2022/01/06 00:58:49;;;;;;;;;;;;;;;5.80;49.05;98239.00;4484159;32;34224;-91
2022/01/06 01:01:16;;;;;;;;;;;;;;;6.10;48.40;98253.22;4484182;32;33203;-90
2022/01/06 01:03:44;;;;;;;;;;;;;;;6.84;46.82;98229.38;4482437;32;32730;-86
2022/01/06 01:06:11;;;;;;;;;;;;;;;7.34;45.69;98212.75;4483526;32;35117;-84
2022/01/06 01:08:38;;;;;;;;;;;;;;;7.62;45.09;98209.59;4483967;32;34758;-85
2022/01/06 01:11:06;;;;;;;;;;;;;;;7.03;46.22;98223.56;4484004;32;33455;-85
2022/01/06 01:13:37;;;;;;;;;;;;;;;6.53;47.09;98233.25;4483649;32;33914;-92
2022/01/06 01:16:19;;;;;;;;;;;;;;;6.90;46.52;98221.72;4482200;32;35472;-85
2022/01/06 01:18:48;;;;;;;;;;;;;;;6.33;47.85;98236.41;4484080;32;33889;-91
2022/01/06 01:21:17;;;;;;;;;;;;;;;6.56;47.32;98243.59;4483530;32;33869;-88
2022/01/06 01:23:44;;;;;;;;;;;;;;;7.82;44.07;98242.44;4483570;32;34418;-87
2022/01/06 01:26:11;;;;;;;;;;;;;;;6.89;46.65;98230.28;4483985;32;33739;-86
2022/01/06 01:28:44;;;;;;;;;;;;;;;5.72;49.26;98258.56;4483878;32;34095;-86
2022/01/06 01:31:24;;;;;;;;;;;;;;;6.49;48.06;98257.22;4484146;32;33626;-90
2022/01/06 01:33:53;;;;;;;;;;;;;;;6.00;49.26;98282.22;4469378;32;34096;-85
2022/01/06 01:36:20;;;;;;;;;;;;;;;6.19;48.95;98275.66;4483726;32;34192;-91
2022/01/06 01:38:47;;;;;;;;;;;;;;;7.17;46.60;98262.41;4483958;32;33913;-91
2022/01/06 01:41:15;;;;;;;;;;;;;;;7.24;46.31;98271.94;4483910;32;34208;-85
2022/01/06 01:43:42;;;;;;;;;;;;;;;6.47;48.15;98266.62;4483245;31;34148;-85
2022/01/06 01:46:13;;;;;;;;;;;;;;;6.41;48.63;98253.69;4468877;32;34073;-92
2022/01/06 01:48:46;;;;;;;;;;;;;;;6.49;48.52;98245.22;4483600;32;34251;-88
2022/01/06 01:51:13;;;;;;;;;;;;;;;7.30;46.39;98238.47;4483567;32;33902;-86
2022/01/06 01:53:40;;;;;;;;;;;;;;;6.87;47.93;98233.69;4483375;32;34769;-86
2022/01/06 01:56:08;;;;;;;;;;;;;;;6.81;47.97;98226.75;4483783;32;34343;-86
2022/01/06 01:58:36;;;;;;;;;;;;;;;6.43;49.08;98236.53;4481561;32;34046;-90
2022/01/06 02:01:03;;;;;;;;;;;;;;;6.85;47.47;98246.53;4483472;32;33311;-93
2022/01/06 02:03:31;;;;;;;;;;;;;;;6.48;48.12;98240.06;4482930;32;35109;-89
2022/01/06 02:05:58;;;;;;;;;;;;;;;6.39;49.03;98240.78;4483576;32;33873;-85
2022/01/06 02:08:25;;;;;;;;;;;;;;;5.91;50.19;98258.84;4482191;32;34857;-85
2022/01/06 02:10:53;;;;;;;;;;;;;;;5.97;49.56;98277.87;4483459;32;32877;-84
2022/01/06 02:13:27;;;;;;;;;;;;;;;6.80;47.71;98266.25;4483755;32;34366;-87
2022/01/06 02:15:59;;;;;;;;;;;;;;;6.61;48.11;98259.97;4482158;32;35123;-90
2022/01/06 02:18:28;;;;;;;;;;;;;;;6.29;49.11;98268.09;4482853;32;34973;-84
2022/01/06 02:20:55;;;;;;;;;;;;;;;6.98;47.95;98268.19;4482578;32;33206;-86
2022/01/06 02:23:22;;;;;;;;;;;;;;;6.71;48.44;98273.84;4483571;32;33768;-84
2022/01/06 02:25:50;;;;;;;;;;;;;;;6.90;47.78;98262.09;4483416;32;34764;-88
2022/01/06 02:28:19;;;;;;;;;;;;;;;7.33;46.95;98240.25;4483261;32;34848;-87
2022/01/06 02:30:50;;;;;;;;;;;;;;;6.44;48.20;98233.09;4483492;32;33334;-88
2022/01/06 02:33:18;;;;;;;;;;;;;;;5.86;50.38;98228.78;4478094;32;35232;-90
2022/01/06 02:35:47;;;;;;;;;;;;;;;6.94;48.42;98214.91;4481930;32;34503;-88
2022/01/06 02:38:14;;;;;;;;;;;;;;;7.23;46.84;98222.94;4481620;32;34308;-86
2022/01/06 02:40:42;;;;;;;;;;;;;;;6.97;47.35;98217.47;4483232;32;33185;-89
2022/01/06 02:43:09;;;;;;;;;;;;;;;6.99;47.08;98223.53;4483046;32;33962;-90
2022/01/06 02:45:36;;;;;;;;;;;;;;;6.90;48.20;98233.75;4483274;32;33740;-86
2022/01/06 02:48:08;;;;;;;;;;;;;;;7.15;47.42;98217.69;4482979;32;34962;-90
2022/01/06 02:50:39;;;;;;;;;;;;;;;7.57;46.30;98234.47;4482938;32;34301;-84
2022/01/06 02:53:07;;;;;;;;;;;;;;;7.00;47.56;98251.03;4482145;32;33819;-86
2022/01/06 02:55:35;;;;;;;;;;;;;;;7.41;46.59;98264.38;4482877;32;34084;-86
2022/01/06 02:58:02;;;;;;;;;;;;;;;7.13;47.37;98270.09;4483296;32;34923;-88
2022/01/06 03:00:30;;;;;;;;;;;;;;;7.16;47.24;98286.47;4467797;32;33420;-86
2022/01/06 03:02:57;;;;;;;;;;;;;;;6.47;48.43;98294.94;4466081;32;34315;-87
2022/01/06 03:05:24;;;;;;;;;;;;;;;6.55;48.86;98311.38;4475919;32;34520;-90
2022/01/06 03:07:52;;;;;;;;;;;;;;;6.15;49.33;98318.50;4482961;32;35313;-87
2022/01/06 03:10:19;;;;;;;;;;;;;;;6.83;48.40;98313.53;4482562;32;33980;-91
2022/01/06 03:12:47;;;;;;;;;;;;;;;6.32;49.57;98322.19;4483060;32;34925;-86
2022/01/06 03:15:18;;;;;;;;;;;;;;;6.30;49.10;98330.75;4482695;32;34328;-88
2022/01/06 03:17:47;;;;;;;;;;;;;;;7.28;46.97;98325.28;4482659;32;34822;-85
2022/01/06 03:20:15;;;;;;;;;;;;;;;7.35;46.58;98320.19;4483954;32;32923;-90
2022/01/06 03:22:43;;;;;;;;;;;;;;;7.71;45.85;98324.91;4484669;32;34054;-85
2022/01/06 03:25:10;;;;;;;;;;;;;;;7.11;47.33;98316.47;4484453;32;34097;-89
2022/01/06 03:27:38;;;;;;;;;;;;;;;7.65;45.92;98312.81;4484703;32;34006;-91
2022/01/06 03:30:06;;;;;;;;;;;;;;;7.41;46.57;98309.94;4484048;32;33582;-85
2022/01/06 03:32:33;;;;;;;;;;;;;;;7.49;46.37;98308.31;4484622;32;34383;-89
2022/01/06 03:35:01;;;;;;;;;;;;;;;6.99;47.49;98312.00;4485047;32;34048;-86
2022/01/06 03:37:28;;;;;;;;;;;;;;;6.77;47.76;98302.25;4484448;32;33612;-85
2022/01/06 03:39:55;;;;;;;;;;;;;;;7.25;46.67;98311.47;4484003;32;34713;-91
2022/01/06 03:42:22;;;;;;;;;;;;;;;5.77;50.53;98322.94;4485080;31;33898;-85
2022/01/06 03:44:50;;;;;;;;;;;;;;;6.54;48.30;98325.09;4484773;32;34013;-86
2022/01/06 03:47:18;;;;;;;;;;;;;;;5.83;50.56;98334.22;4484634;32;34940;-87
2022/01/06 03:49:45;;;;;;;;;;;;;;;5.95;49.93;98335.31;4484397;32;33519;-86
2022/01/06 03:52:12;;;;;;;;;;;;;;;6.53;48.71;98331.97;4484415;32;34262;-85
2022/01/06 03:54:39;;;;;;;;;;;;;;;5.77;50.29;98338.38;4484499;32;34528;-84
2022/01/06 03:57:07;;;;;;;;;;;;;;;6.00;49.86;98338.81;4484213;32;34525;-90
2022/01/06 03:59:35;;;;;;;;;;;;;;;6.60;48.44;98338.09;4483526;32;33556;-85
2022/01/06 04:02:03;;;;;;;;;;;;;;;7.52;46.18;98345.31;4484446;32;34665;-88
2022/01/06 04:04:31;;;;;;;;;;;;;;;6.41;48.36;98339.50;4484042;32;35344;-86
2022/01/06 04:06:58;;;;;;;;;;;;;;;6.85;47.30;98328.97;4483927;32;33944;-90
2022/01/06 04:09:25;;;;;;;;;;;;;;;6.30;48.80;98339.34;4484437;32;33007;-90
2022/01/06 04:11:52;;;;;;;;;;;;;;;6.57;48.53;98338.91;4484755;32;35225;-87
2022/01/06 04:14:19;;;;;;;;;;;;;;;7.10;47.10;98340.50;4484573;32;33878;-85
2022/01/06 04:16:47;;;;;;;;;;;;;;;7.21;46.80;98330.34;4484406;32;33773;-90
2022/01/06 04:19:14;;;;;;;;;;;;;;;7.21;46.43;98323.47;4484371;32;33476;-87
2022/01/06 04:21:41;;;;;;;;;;;;;;;6.79;47.25;98331.50;4484387;32;34355;-86
2022/01/06 04:24:08;;;;;;;;;;;;;;;7.70;46.16;98334.34;4484210;32;34359;-85
2022/01/06 04:26:36;;;;;;;;;;;;;;;8.17;44.95;98340.81;4484424;32;34313;-87
2022/01/06 04:29:03;;;;;;;;;;;;;;;7.06;47.10;98343.88;4484422;32;33518;-86
2022/01/06 04:31:30;;;;;;;;;;;;;;;6.34;48.19;98353.13;4483460;32;33671;-90
2022/01/06 04:33:57;;;;;;;;;;;;;;;7.70;45.54;98348.97;4483959;32;34290;-88
2022/01/06 04:36:26;;;;;;;;;;;;;;;7.62;46.00;98350.59;4484138;32;34205;-89
2022/01/06 04:38:53;;;;;;;;;;;;;;;7.99;45.10;98349.25;4484466;32;33533;-90
2022/01/06 04:41:20;;;;;;;;;;;;;;;7.76;44.86;98359.34;4484309;32;33955;-87
2022/01/06 04:43:47;;;;;;;;;;;;;;;7.54;45.28;98359.12;4484216;31;34336;-90
2022/01/06 04:46:15;;;;;;;;;;;;;;;9.00;42.23;98363.03;4483884;32;34078;-90
2022/01/06 04:48:43;;;;;;;;;;;;;;;8.62;43.36;98366.22;4484067;32;33709;-88
2022/01/06 04:51:10;;;;;;;;;;;;;;;9.31;41.17;98374.38;4484282;32;34009;-86
2022/01/06 04:53:37;;;;;;;;;;;;;;;9.36;40.59;98370.13;4483758;32;35320;-89
2022/01/06 04:56:04;;;;;;;;;;;;;;;8.99;41.63;98390.59;4484204;32;33404;-85
2022/01/06 04:58:32;;;;;;;;;;;;;;;8.95;42.11;98393.16;4484348;32;33695;-90
2022/01/06 05:00:59;;;;;;;;;;;;;;;8.11;43.22;98401.03;4484017;32;34986;-86
2022/01/06 05:03:27;;;;;;;;;;;;;;;8.99;41.71;98402.66;4483783;32;34498;-85
2022/01/06 05:05:54;;;;;;;;;;;;;;;9.02;42.10;98410.44;4483747;32;34367;-86
2022/01/06 05:08:21;;;;;;;;;;;;;;;9.03;41.84;98401.81;4484237;32;33473;-87
2022/01/06 05:10:51;;;;;;;;;;;;;;;8.87;42.40;98410.34;4484060;32;34040;-85
2022/01/06 05:13:18;;;;;;;;;;;;;;;8.95;41.83;98411.25;4483677;32;34364;-87
2022/01/06 05:15:45;;;;;;;;;;;;;;;7.89;43.60;98417.13;4482829;32;35104;-86
2022/01/06 05:18:13;;;;;;;;;;;;;;;8.38;43.08;98415.09;4483929;32;34051;-87
2022/01/06 05:20:42;;;;;;;;;;;;;;;7.65;44.22;98413.41;4483584;32;34529;-91
2022/01/06 05:23:11;;;;;;;;;;;;;;;6.88;46.81;98429.53;4484002;32;34181;-86
2022/01/06 05:25:39;;;;;;;;;;;;;;;8.88;42.66;98425.84;4482191;32;34284;-86
2022/01/06 05:28:06;;;;;;;;;;;;;;;8.69;42.88;98414.50;4483351;32;33493;-90
2022/01/06 05:30:33;;;;;;;;;;;;;;;8.46;43.81;98428.94;4483713;32;34743;-88
2022/01/06 05:33:01;;;;;;;;;;;;;;;8.00;44.09;98415.53;4483501;32;34567;-85
2022/01/06 05:35:28;;;;;;;;;;;;;;;7.26;46.05;98422.34;4483250;32;34454;-84
2022/01/06 05:37:55;;;;;;;;;;;;;;;7.93;44.51;98434.38;4482396;32;32785;-92
2022/01/06 05:40:23;;;;;;;;;;;;;;;7.87;44.92;98429.13;4483943;32;34313;-84
2022/01/06 05:42:50;;;;;;;;;;;;;;;7.89;45.03;98422.28;4479471;31;35101;-87
2022/01/06 05:45:18;;;;;;;;;;;;;;;7.01;46.60;98433.16;4484978;32;35076;-90
2022/01/06 05:47:45;;;;;;;;;;;;;;;6.85;47.32;98429.47;4482297;32;33218;-86
2022/01/06 05:50:12;;;;;;;;;;;;;;;7.69;45.50;98414.28;4479709;32;35093;-88
2022/01/06 05:52:40;;;;;;;;;;;;;;;7.82;45.00;98425.66;4480460;32;33545;-90
2022/01/06 05:55:07;;;;;;;;;;;;;;;7.66;45.52;98435.78;4482252;32;33858;-88
2022/01/06 05:57:34;;;;;;;;;;;;;;;8.04;45.01;98422.47;4482403;32;32886;-83
2022/01/06 06:00:04;;;;;;;;;;;;;;;8.15;45.11;98423.44;4483721;32;33820;-89
2022/01/06 06:02:31;;;;;;;;;;;;;;;7.32;46.25;98422.44;4483270;32;34084;-85
2022/01/06 06:04:59;;;;;;;;;;;;;;;8.19;44.68;98438.13;4483232;32;34125;-85
2022/01/06 06:07:26;;;;;;;;;;;;;;;7.33;46.84;98436.19;4483612;32;33558;-85
2022/01/06 06:09:58;;;;;;;;;;;;;;;8.05;45.18;98434.50;4483260;32;34211;-91
2022/01/06 06:12:25;;;;;;;;;;;;;;;6.63;47.66;98446.31;4481774;32;35289;-86
2022/01/06 06:14:52;;;;;;;;;;;;;;;7.40;47.08;98434.56;4482869;32;34406;-93
2022/01/06 06:17:19;;;;;;;;;;;;;;;7.13;47.75;98437.63;4483418;32;33372;-85
2022/01/06 06:19:46;;;;;;;;;;;;;;;6.61;48.82;98437.69;4483030;32;35013;-92
2022/01/06 06:22:13;;;;;;;;;;;;;;;6.58;48.73;98438.47;4482549;32;34175;-93
2022/01/06 06:24:44;;;;;;;;;;;;;;;5.94;50.47;98441.59;4483683;32;35323;-93
2022/01/06 06:27:11;;;;;;;;;;;;;;;5.55;51.95;98447.66;4482996;32;33502;-94
2022/01/06 06:29:38;;;;;;;;;;;;;;;5.85;51.58;98448.28;4483470;32;34311;-92
2022/01/06 06:32:06;;;;;;;;;;;;;;;6.11;50.58;98445.38;4483774;32;35291;-86
2022/01/06 06:34:33;;;;;;;;;;;;;;;5.57;51.80;98464.84;4482166;32;34113;-89
2022/01/06 06:37:00;;;;;;;;;;;;;;;6.66;49.52;98466.06;4480289;32;34382;-92
2022/01/06 06:39:28;;;;;;;;;;;;;;;6.43;50.25;98463.09;4483344;32;34982;-90
2022/01/06 06:41:55;;;;;;;;;;;;;;;6.72;49.63;98472.22;4482752;31;34202;-85
2022/01/06 06:44:22;;;;;;;;;;;;;;;6.77;49.30;98473.12;4482491;32;35119;-90
2022/01/06 06:46:51;;;;;;;;;;;;;;;6.31;50.08;98474.06;4482773;32;33568;-85
2022/01/06 06:49:18;;;;;;;;;;;;;;;6.47;50.33;98480.34;4482960;32;33721;-85
2022/01/06 06:51:45;;;;;;;;;;;;;;;6.50;49.61;98480.41;4482868;32;34509;-85
2022/01/06 06:54:13;;;;;;;;;;;;;;;6.19;50.80;98484.97;4482052;32;33563;-87
2022/01/06 06:56:41;;;;;;;;;;;;;;;6.36;50.35;98487.88;4482879;32;33448;-89
2022/01/06 06:59:08;;;;;;;;;;;;;;;6.48;50.06;98498.41;4482784;32;34175;-88
2022/01/06 07:01:36;;;;;;;;;;;;;;;6.34;50.72;98500.72;4481498;32;33882;-91
2022/01/06 07:04:03;;;;;;;;;;;;;;;6.44;50.67;98504.34;4481470;32;33941;-84
2022/01/06 07:06:31;;;;;;;;;;;;;;;6.36;50.04;98513.59;4483224;32;33147;-83
2022/01/06 07:08:58;;;;;;;;;;;;;;;7.04;48.87;98531.13;4483056;32;33886;-88
2022/01/06 07:11:25;;;;;;;;;;;;;;;6.75;49.47;98521.22;4481531;32;34023;-85
2022/01/06 07:13:52;;;;;;;;;;;;;;;6.76;49.32;98525.50;4483074;32;34223;-89
2022/01/06 07:16:20;;;;;;;;;;;;;;;6.06;50.85;98530.22;4483069;32;34041;-84
2022/01/06 07:18:47;;;;;;;;;;;;;;;6.07;50.79;98526.78;4482072;32;35205;-90
2022/01/06 07:21:14;;;;;;;;;;;;;;;6.21;51.04;98537.37;4482876;32;34629;-86
2022/01/06 07:23:42;;;;;;;;;;;;;;;6.02;52.14;98540.38;4481083;32;34263;-79
2022/01/06 07:26:10;;;;;;;;;;;;;;;5.86;51.45;98547.75;4482604;32;33330;-90
2022/01/06 07:28:37;;;;;;;;;;;;;;;6.58;50.41;98550.94;4482879;32;34062;-85
2022/01/06 07:31:05;;;;;;;;;;;;;;;6.39;50.46;98552.28;4482198;32;34008;-89
2022/01/06 07:33:32;;;;;;;;;;;;;;;6.41;51.09;98562.63;4481907;32;34842;-88
2022/01/06 07:35:59;;;;;;;;;;;;;;;6.96;49.02;98553.31;4482767;32;34339;-91
2022/01/06 07:38:26;;;;;;;;;;;;;;;6.57;50.23;98564.66;4482358;32;34239;-89
2022/01/06 07:40:55;;;;;;;;;;;;;;;7.03;49.18;98561.19;4480793;32;35085;-88
2022/01/06 07:43:22;;;;;;;;;;;;;;;7.50;47.57;98570.53;4482093;32;34162;-90
2022/01/06 07:45:50;;;;;;;;;;;;;;;6.33;51.04;98572.78;4481689;32;33329;-87
2022/01/06 07:48:29;;;;;;;;;;;;;;;7.62;47.77;98578.47;4482249;32;35485;-85
2022/01/06 07:50:57;;;;;;;;;;;;;;;7.09;48.81;98588.78;4481262;32;34498;-83
2022/01/06 07:53:24;;;;;;;;;;;;;;;6.67;50.20;98588.91;4480621;32;34320;-85
2022/01/06 07:55:51;;;;;;;;;;;;;;;7.75;47.43;98595.00;4481982;32;33514;-89
2022/01/06 07:58:19;;;;;;;;;;;;;;;7.31;48.43;98603.78;4482049;32;33927;-84
2022/01/06 08:00:46;;;;;;;;;;;;;;;7.38;48.19;98590.97;4479891;32;33919;-84
2022/01/06 08:03:14;;;;;;;;;;;;;;;7.39;48.54;98603.06;4481267;32;34098;-87
2022/01/06 08:05:41;;;;;;;;;;;;;;;7.46;48.23;98608.34;4483210;32;33681;-85
2022/01/06 08:08:13;;;;;;;;;;;;;;;7.41;47.97;98617.69;4483912;32;33969;-85
2022/01/06 08:10:40;;;;;;;;;;;;;;;7.22;48.23;98615.63;4484413;32;35064;-85
2022/01/06 08:13:08;;;;;;;;;;;;;;;7.19;48.78;98625.91;4484260;32;33976;-86
2022/01/06 08:15:35;;;;;;;;;;;;;;;6.99;49.41;98625.53;4484091;32;33275;-86
2022/01/06 08:18:02;;;;;;;;;;;;;;;7.96;46.95;98630.59;4484381;32;34338;-87
2022/01/06 08:20:29;;;;;;;;;;;;;;;7.21;48.86;98622.50;4484090;32;34383;-88
2022/01/06 08:22:56;;;;;;;;;;;;;;;8.05;47.23;98628.13;4484124;32;34792;-86
2022/01/06 08:25:24;;;;;;;;;;;;;;;7.19;49.26;98634.50;4484348;32;33429;-89
2022/01/06 08:27:51;;;;;;;;;;;;;;;7.75;47.50;98631.97;4484279;32;34001;-88
2022/01/06 08:30:18;;;;;;;;;;;;;;;7.61;48.67;98646.38;4484060;32;34792;-85
2022/01/06 08:32:45;;;;;;;;;;;;;;;8.71;45.77;98644.50;4483079;32;34915;-88
2022/01/06 08:35:13;;;;;;;;;;;;;;;8.19;46.71;98659.31;4484587;32;34186;-90
2022/01/06 08:37:40;;;;;;;;;;;;;;;8.90;44.90;98656.81;4484172;32;33866;-89
2022/01/06 08:40:07;;;;;;;;;;;;;;;8.04;47.02;98667.69;4482828;32;35372;-85
2022/01/06 08:42:35;;;;;;;;;;;;;;;7.42;48.06;98677.84;4484114;31;33778;-86
2022/01/06 08:45:02;;;;;;;;;;;;;;;8.20;47.16;98679.09;4483735;32;33075;-86
2022/01/06 08:47:30;;;;;;;;;;;;;;;8.03;47.65;98687.50;4484358;32;34010;-86
2022/01/06 08:49:57;;;;;;;;;;;;;;;7.82;48.13;98688.84;4484300;32;34289;-86
2022/01/06 08:52:24;;;;;;;;;;;;;;;8.71;45.82;98691.91;4484104;32;35242;-90
2022/01/06 08:54:52;;;;;;;;;;;;;;;9.04;45.04;98682.78;4484134;32;33423;-88
2022/01/06 08:57:19;;;;;;;;;;;;;;;9.01;44.89;98680.16;4483923;32;34923;-86
2022/01/06 08:59:46;;;;;;;;;;;;;;;8.14;46.53;98685.03;4483727;32;35381;-86
2022/01/06 09:02:13;;;;;;;;;;;;;;;7.62;47.93;98686.81;4483922;32;34281;-85
2022/01/06 09:04:41;;;;;;;;;;;;;;;8.24;46.38;98693.81;4484053;32;33471;-90
2022/01/06 09:07:08;;;;;;;;;;;;;;;7.59;47.51;98691.94;4484118;32;34245;-88
2022/01/06 09:09:36;;;;;;;;;;;;;;;7.43;48.48;98692.50;4483916;32;34492;-85
2022/01/06 09:12:05;;;;;;;;;;;;;;;8.16;46.59;98693.69;4484008;32;33994;-88
2022/01/06 09:14:32;;;;;;;;;;;;;;;9.04;44.92;98694.84;4483692;32;34392;-89
2022/01/06 09:17:00;;;;;;;;;;;;;;;9.44;43.53;98694.44;4483423;32;34287;-90
2022/01/06 09:19:28;;;;;;;;;;;;;;;8.71;45.46;98698.75;4483948;32;35123;-86
2022/01/06 09:21:55;;;;;;;;;;;;;;;8.16;46.63;98698.84;4483776;32;34872;-86
2022/01/06 09:24:23;;;;;;;;;;;;;;;7.66;47.71;98698.94;4483950;32;33033;-89
2022/01/06 09:26:50;;;;;;;;;;;;;;;8.41;45.81;98699.22;4484197;32;34692;-86
2022/01/06 09:29:17;;;;;;;;;;;;;;;7.99;46.53;98706.34;4483619;32;35537;-89
2022/01/06 09:31:44;;;;;;;;;;;;;;;7.97;46.53;98704.59;4483917;32;33626;-85
2022/01/06 09:34:11;;;;;;;;;;;;;;;8.01;46.75;98701.22;4483996;32;32805;-85
2022/01/06 09:36:39;;;;;;;;;;;;;;;7.26;48.24;98705.09;4483969;32;33644;-86
2022/01/06 09:39:07;;;;;;;;;;;;;;;8.28;45.88;98704.19;4482824;32;34831;-89
2022/01/06 09:41:35;;;;;;;;;;;;;;;8.81;44.82;98715.25;4483932;31;34099;-90
2022/01/06 09:44:04;;;;;;;;;;;;;;;7.74;47.26;98712.81;4484007;32;33327;-90
2022/01/06 09:46:52;;;;;;;;;;;;;;;7.32;48.38;98716.38;4482864;32;34184;-85
2022/01/06 09:49:19;;;;;;;;;;;;;;;8.44;46.40;98723.38;4483797;32;33850;-85
2022/01/06 09:51:46;;;;;;;;;;;;;;;8.92;45.07;98722.31;4483872;32;34391;-86
2022/01/06 09:54:14;;;;;;;;;;;;;;;7.56;47.74;98722.81;4482789;32;32220;-87
2022/01/06 09:56:41;;;;;;;;;;;;;;;8.73;45.31;98720.34;4483727;32;33817;-90
2022/01/06 09:59:08;;;;;;;;;;;;;;;8.90;45.64;98729.19;4483779;32;34223;-89
2022/01/06 10:01:36;;;;;;;;;;;;;;;8.91;45.15;98722.28;4483652;32;34078;-86
2022/01/06 10:04:04;;;;;;;;;;;;;;;9.24;44.04;98727.84;4483483;32;34135;-86
2022/01/06 10:06:31;;;;;;;;;;;;;;;8.78;44.92;98732.47;4483554;32;34350;-86
2022/01/06 10:08:59;;;;;;;;;;;;;;;8.26;46.48;98738.59;4483500;32;34275;-86
2022/01/06 10:11:28;;;;;;;;;;;;;;;8.17;46.26;98739.31;4483438;32;33969;-91
2022/01/06 10:14:08;;;;;;;;;;;;;;;8.39;45.54;98745.72;4483556;32;34052;-86
2022/01/06 10:16:39;;;;;;;;;;;;;;;8.07;46.47;98731.41;4483454;32;33591;-90
2022/01/06 10:19:09;;;;;;;;;;;;;;;7.85;47.10;98737.94;4483524;32;35289;-90
2022/01/06 10:21:40;;;;;;;;;;;;;;;8.84;45.63;98739.44;4483350;32;34159;-86
2022/01/06 10:24:12;;;;;;;;;;;;;;;8.17;46.46;98730.69;4482203;32;34319;-85
2022/01/06 10:26:56;;;;;;;;;;;;;;;8.59;45.81;98738.22;4483025;32;34970;-90
2022/01/06 10:29:25;;;;;;;;;;;;;;;7.83;46.77;98739.62;4482270;32;34186;-85
2022/01/06 10:32:00;;;;;;;;;;;;;;;8.08;47.28;98734.03;4483357;32;34338;-90
2022/01/06 10:34:31;;;;;;;;;;;;;;;8.83;45.37;98742.87;4483737;32;33849;-85
2022/01/06 10:36:59;;;;;;;;;;;;;;;8.53;45.65;98745.91;4482147;32;34773;-87
2022/01/06 10:39:38;;;;;;;;;;;;;;;9.38;44.15;98738.34;4482117;32;34089;-85
2022/01/06 10:42:07;;;;;;;;;;;;;;;9.83;43.27;98746.53;4482019;31;33828;-89
2022/01/06 10:44:44;;;;;;;;;;;;;;;9.78;43.22;98751.69;4483508;32;33815;-87
2022/01/06 10:47:11;;;;;;;;;;;;;;;9.08;45.40;98751.78;4483236;32;34914;-86
2022/01/06 10:49:38;;;;;;;;;;;;;;;8.07;46.61;98765.84;4483117;32;34395;-89
2022/01/06 10:52:06;;;;;;;;;;;;;;;8.43;46.55;98762.12;4483319;32;33858;-89
2022/01/06 10:54:35;;;;;;;;;;;;;;;8.23;46.65;98742.00;4482851;32;33179;-91
2022/01/06 10:57:08;;;;;;;;;;;;;;;7.80;47.42;98761.06;4481735;32;34644;-84
2022/01/06 10:59:36;;;;;;;;;;;;;;;7.56;48.12;98758.94;4482720;32;35332;-86
2022/01/06 11:02:04;;;;;;;;;;;;;;;8.29;46.13;98757.56;4483155;32;34439;-85
2022/01/06 11:04:32;;;;;;;;;;;;;;;9.10;44.33;98765.63;4483037;32;33553;-85
2022/01/06 11:06:59;;;;;;;;;;;;;;;8.77;45.54;98761.75;4482915;32;34216;-85
2022/01/06 11:09:29;;;;;;;;;;;;;;;9.18;44.83;98756.22;4482959;32;35133;-86
2022/01/06 11:14:27;;;;;;;;;;;;;;;8.72;45.73;98776.34;4481643;32;34859;-86
2022/01/06 11:16:54;;;;;;;;;;;;;;;8.63;45.63;98781.34;4482930;32;33820;-90
2022/01/06 11:19:22;;;;;;;;;;;;;;;8.76;45.20;98785.88;4482908;32;33985;-88
2022/01/06 11:21:50;;;;;;;;;;;;;;;8.66;45.87;98786.56;4481437;32;34251;-85
2022/01/06 11:24:18;;;;;;;;;;;;;;;9.99;42.87;98785.50;4482570;32;34482;-85
2022/01/06 11:26:58;;;;;;;;;;;;;;;9.15;44.32;98786.34;4482778;32;34207;-90
2022/01/06 11:29:34;;;;;;;;;;;;;;;9.37;44.07;98787.50;4481457;32;33980;-85
2022/01/06 11:32:03;;;;;;;;;;;;;;;9.16;44.35;98786.38;4481739;32;34965;-86
2022/01/06 11:34:35;;;;;;;;;;;;;;;8.43;46.60;98790.53;4482596;32;33092;-88
2022/01/06 11:37:10;;;;;;;;;;;;;;;9.11;45.75;98790.63;4482671;32;34539;-90
2022/01/06 11:39:37;;;;;;;;;;;;;;;9.80;44.16;98793.09;4481304;32;34343;-85
2022/01/06 11:42:13;;;;;;;;;;;;;;;8.74;46.29;98795.28;4484465;32;34961;-85
2022/01/06 11:44:48;;;;;;;;;;;;;;;9.33;44.76;98793.47;4484451;32;34039;-88
2022/01/06 11:47:15;;;;;;;;;;;;;;;9.37;44.57;98787.50;4484634;32;33751;-86
2022/01/06 11:49:43;;;;;;;;;;;;;;;9.00;44.92;98798.22;4484666;32;34473;-82
2022/01/06 11:52:14;;;;;;;;;;;;;;;9.75;43.54;98796.53;4484201;32;34016;-83
2022/01/06 11:54:45;;;;;;;;;;;;;;;9.10;44.10;98782.84;4483230;32;34131;-85
2022/01/06 11:57:12;;;;;;;;;;;;;;;8.44;45.61;98800.00;4483227;32;34689;-85
2022/01/06 11:59:39;;;;;;;;;;;;;;;8.07;46.21;98790.78;4483154;32;34937;-89
2022/01/06 12:02:07;;;;;;;;;;;;;;;8.08;46.79;98798.56;4484899;32;34196;-85
2022/01/06 12:04:38;;;;;;;;;;;;;;;9.66;42.66;98785.19;4484478;32;34138;-85
2022/01/06 12:07:07;;;;;;;;;;;;;;;8.94;44.33;98786.94;4484217;32;34077;-85
2022/01/06 12:09:35;;;;;;;;;;;;;;;9.60;43.82;98782.56;4484567;32;34253;-85
2022/01/06 12:12:06;;;;;;;;;;;;;;;9.72;42.48;98786.12;4484440;32;34348;-85
2022/01/06 12:14:33;;;;;;;;;;;;;;;9.19;43.73;98789.00;4484433;32;34293;-85
2022/01/06 12:17:03;;;;;;;;;;;;;;;9.51;42.86;98785.94;4484411;32;33999;-85
2022/01/06 12:19:30;;;;;;;;;;;;;;;8.93;44.34;98792.97;4484253;32;35213;-85
2022/01/06 12:21:57;;;;;;;;;;;;;;;9.33;42.94;98802.09;4484398;32;34795;-89
2022/01/06 12:24:24;;;;;;;;;;;;;;;9.03;44.05;98807.75;4483024;32;33138;-89
2022/01/06 12:26:52;;;;;;;;;;;;;;;9.71;42.79;98810.28;4482815;32;34176;-85
2022/01/06 12:29:20;;;;;;;;;;;;;;;8.93;44.56;98814.50;4484330;32;34520;-89
2022/01/06 12:31:51;;;;;;;;;;;;;;;10.11;42.59;98808.06;4484164;32;34611;-85
2022/01/06 12:34:20;;;;;;;;;;;;;;;9.42;43.31;98822.03;4484445;32;33084;-87
2022/01/06 12:36:47;;;;;;;;;;;;;;;9.08;43.84;98820.75;4482694;32;34372;-86
2022/01/06 12:39:18;;;;;;;;;;;;;;;9.50;43.62;98826.44;4484057;32;34392;-88
2022/01/06 12:41:46;;;;;;;;;;;;;;;9.75;43.12;98824.12;4484250;31;34324;-90
2022/01/06 12:44:18;;;;;;;;;;;;;;;8.88;44.01;98836.00;4483955;32;33520;-85
2022/01/06 12:46:45;;;;;;;;;;;;;;;8.43;45.69;98829.28;4483009;32;34584;-85
2022/01/06 12:49:13;;;;;;;;;;;;;;;9.73;42.72;98833.59;4483953;32;34239;-85
2022/01/06 12:51:44;;;;;;;;;;;;;;;10.16;41.79;98839.22;4483500;32;34341;-85
2022/01/06 12:54:18;;;;;;;;;;;;;;;9.92;42.63;98837.25;4483883;32;33339;-85
2022/01/06 12:56:49;;;;;;;;;;;;;;;9.68;42.72;98846.47;4484057;32;34446;-86
2022/01/06 12:59:17;;;;;;;;;;;;;;;9.05;43.55;98847.41;4479937;32;86881;-86
2022/01/06 13:01:45;;;;;;;;;;;;;;;9.56;42.52;98856.72;4483763;32;34414;-85
2022/01/06 13:04:12;;;;;;;;;;;;;;;10.26;41.37;98853.13;4482647;32;33187;-85
2022/01/06 13:06:42;;;;;;;;;;;;;;;10.07;41.86;98855.50;4482732;32;34477;-89
2022/01/06 13:09:28;;;;;;;;;;;;;;;11.09;40.18;98850.28;4482657;32;35062;-85
2022/01/06 13:11:59;;;;;;;;;;;;;;;11.03;39.97;98855.44;4482599;32;34347;-85
2022/01/06 13:14:27;;;;;;;;;;;;;;;9.37;43.35;98862.50;4482485;32;33607;-85